createdAt,value
2019-03-13T00:01:55.749Z,100.00
2019-03-13T00:04:24.874Z,100.00
2019-03-13T00:06:53.871Z,100.00
2019-03-13T00:09:22.963Z,100.00
2019-03-13T00:11:52.053Z,100.00
2019-03-13T00:14:21.196Z,100.00
2019-03-13T00:16:50.185Z,100.00
2019-03-13T00:19:19.154Z,100.00
2019-03-13T00:21:49.127Z,100.00
2019-03-13T00:24:18.106Z,100.00
2019-03-13T00:26:47.115Z,100.00
2019-03-13T00:29:16.168Z,100.00
2019-03-13T00:31:45.230Z,100.00
2019-03-13T00:34:14.415Z,100.00
2019-03-13T00:36:43.413Z,100.00
2019-03-13T00:39:12.536Z,100.00
2019-03-13T00:41:41.545Z,100.00
2019-03-13T00:44:10.537Z,100.00
2019-03-13T00:46:39.628Z,100.00
2019-03-13T00:49:08.619Z,100.00
2019-03-13T00:51:37.691Z,100.00
2019-03-13T00:54:06.763Z,100.00
2019-03-13T00:56:35.762Z,100.00
2019-03-13T00:59:04.876Z,100.00
2019-03-13T01:01:42.123Z,100.00
2019-03-13T01:04:17.944Z,100.00
2019-03-13T01:06:50.611Z,100.00
2019-03-13T01:09:19.677Z,100.00
2019-03-13T01:11:48.785Z,100.00
2019-03-13T01:14:19.433Z,100.00
2019-03-13T01:16:48.491Z,100.00
2019-03-13T01:19:17.549Z,100.00
2019-03-13T01:21:46.623Z,100.00
2019-03-13T01:24:15.688Z,100.00
2019-03-13T01:26:44.753Z,100.00
2019-03-13T01:29:13.742Z,100.00
2019-03-13T01:31:57.421Z,100.00
2019-03-13T01:34:45.372Z,100.00
2019-03-13T01:37:16.784Z,100.00
2019-03-13T01:39:45.870Z,100.00
2019-03-13T01:42:14.944Z,100.00
2019-03-13T01:44:47.068Z,100.00
2019-03-13T01:47:16.044Z,100.00
2019-03-13T01:49:45.046Z,100.00
2019-03-13T01:52:14.209Z,100.00
2019-03-13T01:54:43.271Z,100.00
2019-03-13T01:57:12.338Z,100.00
2019-03-13T01:59:41.415Z,100.00
2019-03-13T02:02:10.591Z,100.00
2019-03-13T02:04:39.714Z,100.00
2019-03-13T02:07:08.841Z,100.00
2019-03-13T02:09:37.845Z,100.00
2019-03-13T02:12:06.915Z,100.00
2019-03-13T02:14:35.913Z,100.00
2019-03-13T02:17:06.591Z,100.00
2019-03-13T02:19:35.725Z,100.00
2019-03-13T02:22:09.772Z,100.00
2019-03-13T02:24:40.042Z,100.00
2019-03-13T02:27:13.341Z,100.00
2019-03-13T02:29:42.329Z,100.00
2019-03-13T02:32:11.340Z,100.00
2019-03-13T02:34:41.738Z,100.00
2019-03-13T02:37:13.517Z,99.50
2019-03-13T02:39:42.521Z,100.00
2019-03-13T02:42:11.518Z,100.00
2019-03-13T02:44:45.693Z,99.35
2019-03-13T02:47:18.778Z,99.35
2019-03-13T02:49:45.594Z,98.64
2019-03-13T02:52:14.599Z,98.64
2019-03-13T02:54:43.645Z,98.27
2019-03-13T02:57:12.666Z,98.27
2019-03-13T02:59:41.674Z,99.42
2019-03-13T03:02:19.932Z,97.84
2019-03-13T03:04:48.999Z,97.84
2019-03-13T03:07:17.978Z,98.18
2019-03-13T03:09:47.035Z,98.57
2019-03-13T03:12:16.012Z,98.57
2019-03-13T03:15:04.290Z,96.87
2019-03-13T03:17:33.423Z,96.93
2019-03-13T03:20:02.401Z,96.63
2019-03-13T03:22:31.400Z,95.76
2019-03-13T03:25:03.641Z,96.70
2019-03-13T03:27:32.657Z,97.23
2019-03-13T03:30:07.261Z,97.23
2019-03-13T03:32:36.328Z,95.89
2019-03-13T03:35:07.323Z,95.89
2019-03-13T03:37:36.511Z,96.14
2019-03-13T03:40:07.770Z,96.08
2019-03-13T03:42:39.849Z,96.34
2019-03-13T03:45:09.274Z,96.34
2019-03-13T03:47:39.356Z,96.10
2019-03-13T03:50:10.464Z,96.78
2019-03-13T03:52:39.449Z,96.08
2019-03-13T03:55:08.638Z,96.08
2019-03-13T03:57:37.685Z,95.70
2019-03-13T04:00:07.466Z,95.63
2019-03-13T04:02:36.442Z,95.67
2019-03-13T04:05:05.637Z,95.37
2019-03-13T04:07:34.710Z,96.04
2019-03-13T04:10:03.817Z,96.04
2019-03-13T04:12:32.915Z,95.17
2019-03-13T04:15:03.632Z,94.74
2019-03-13T04:17:32.631Z,94.38
2019-03-13T04:20:02.696Z,94.38
2019-03-13T04:22:31.781Z,94.21
2019-03-13T04:25:31.913Z,94.21
2019-03-13T04:28:01.775Z,94.38
2019-03-13T04:30:30.857Z,95.99
2019-03-13T04:33:00.000Z,95.99
2019-03-13T04:35:29.134Z,94.16
2019-03-13T04:37:58.199Z,94.16
2019-03-13T04:40:27.239Z,93.48
2019-03-13T04:42:56.343Z,92.89
2019-03-13T04:45:25.464Z,93.73
2019-03-13T04:47:54.520Z,93.11
2019-03-13T04:50:23.578Z,92.75
2019-03-13T04:52:52.688Z,94.10
2019-03-13T04:55:21.699Z,94.10
2019-03-13T04:57:50.694Z,94.48
2019-03-13T05:00:19.795Z,95.04
2019-03-13T05:02:48.848Z,93.25
2019-03-13T05:05:59.229Z,94.07
2019-03-13T05:09:06.218Z,92.58
2019-03-13T05:11:35.377Z,92.58
2019-03-13T05:14:04.441Z,93.02
2019-03-13T05:16:33.406Z,94.00
2019-03-13T05:19:02.478Z,94.14
2019-03-13T05:21:31.578Z,94.14
2019-03-13T05:24:00.569Z,93.43
2019-03-13T05:26:29.670Z,92.79
2019-03-13T05:28:58.687Z,92.79
2019-03-13T05:31:27.762Z,93.09
2019-03-13T05:33:56.772Z,93.20
2019-03-13T05:36:25.756Z,92.29
2019-03-13T05:38:54.766Z,92.84
2019-03-13T05:41:23.769Z,92.84
2019-03-13T05:43:54.702Z,92.36
2019-03-13T05:46:23.769Z,92.36
2019-03-13T05:48:52.891Z,92.81
2019-03-13T05:51:21.917Z,92.81
2019-03-13T05:53:50.920Z,92.40
2019-03-13T05:56:19.949Z,92.91
2019-03-13T05:58:48.933Z,94.79
2019-03-13T06:01:17.979Z,94.79
2019-03-13T06:03:46.966Z,95.25
2019-03-13T06:06:16.021Z,97.41
2019-03-13T06:08:45.020Z,97.41
2019-03-13T06:11:14.133Z,98.71
2019-03-13T06:13:43.145Z,100.00
2019-03-13T06:16:12.105Z,100.00
2019-03-13T06:18:41.105Z,100.00
2019-03-13T06:21:10.169Z,100.00
2019-03-13T06:23:39.177Z,100.00
2019-03-13T06:26:08.221Z,100.00
2019-03-13T06:28:37.222Z,100.00
2019-03-13T06:31:06.390Z,100.00
2019-03-13T06:33:35.563Z,100.00
2019-03-13T06:36:04.721Z,100.00
2019-03-13T06:38:33.706Z,100.00
2019-03-13T06:41:05.060Z,100.00
2019-03-13T06:43:33.386Z,100.00
2019-03-13T06:46:02.405Z,100.00
2019-03-13T06:48:31.356Z,100.00
2019-03-13T06:51:00.374Z,100.00
2019-03-13T06:53:29.372Z,100.00
2019-03-13T06:55:58.355Z,100.00
2019-03-13T06:58:42.228Z,100.00
2019-03-13T07:01:19.784Z,100.00
2019-03-13T07:03:59.528Z,100.00
2019-03-13T07:06:53.786Z,100.00
2019-03-13T07:09:30.713Z,100.00
2019-03-13T07:12:10.903Z,100.00
2019-03-13T07:14:45.849Z,100.00
2019-03-13T07:17:20.959Z,100.00
2019-03-13T07:20:24.069Z,100.00
2019-03-13T07:23:27.193Z,100.00
2019-03-13T07:26:27.575Z,100.00
2019-03-13T07:29:33.730Z,100.00
2019-03-13T07:32:20.855Z,100.00
2019-03-13T07:35:01.720Z,100.00
2019-03-13T07:37:48.658Z,100.00
2019-03-13T07:40:51.881Z,100.00
2019-03-13T07:43:41.607Z,100.00
2019-03-13T07:46:17.801Z,100.00
2019-03-13T07:49:05.738Z,100.00
2019-03-13T07:51:50.422Z,100.00
2019-03-13T07:54:37.317Z,100.00
2019-03-13T07:57:40.825Z,100.00
2019-03-13T08:00:20.629Z,100.00
2019-03-13T08:03:11.562Z,100.00
2019-03-13T08:05:59.558Z,100.00
2019-03-13T08:08:39.051Z,100.00
2019-03-13T08:11:20.240Z,100.00
2019-03-13T08:13:56.946Z,100.00
2019-03-13T08:16:34.399Z,100.00
2019-03-13T08:19:28.624Z,100.00
2019-03-13T08:22:15.314Z,100.00
2019-03-13T08:24:49.530Z,100.00
2019-03-13T08:27:55.736Z,100.00
2019-03-13T08:30:46.827Z,100.00
2019-03-13T08:33:45.482Z,100.00
2019-03-13T08:36:40.662Z,100.00
2019-03-13T08:39:28.235Z,100.00
2019-03-13T08:42:10.016Z,100.00
2019-03-13T08:44:55.268Z,100.00
2019-03-13T08:47:32.881Z,100.00
2019-03-13T08:50:17.679Z,100.00
2019-03-13T08:53:08.563Z,100.00
2019-03-13T08:55:55.072Z,100.00
2019-03-13T08:58:53.091Z,100.00
2019-03-13T09:01:36.434Z,100.00
2019-03-13T09:04:17.552Z,100.00
2019-03-13T09:07:05.482Z,100.00
2019-03-13T09:09:52.355Z,100.00
2019-03-13T09:12:40.438Z,100.00
2019-03-13T09:15:31.975Z,100.00
2019-03-13T09:18:10.948Z,100.00
2019-03-13T09:20:58.208Z,100.00
2019-03-13T09:23:44.830Z,100.00
2019-03-13T09:26:32.954Z,100.00
2019-03-13T09:29:08.208Z,100.00
2019-03-13T09:31:58.899Z,100.00
2019-03-13T09:34:42.725Z,100.00
2019-03-13T09:37:28.666Z,100.00
2019-03-13T09:40:12.694Z,100.00
2019-03-13T09:42:55.904Z,100.00
2019-03-13T09:45:52.158Z,100.00
2019-03-13T09:48:40.103Z,100.00
2019-03-13T09:51:31.032Z,100.00
2019-03-13T09:54:17.697Z,100.00
2019-03-13T09:57:12.700Z,100.00
2019-03-13T09:59:55.858Z,100.00
2019-03-13T10:02:50.030Z,100.00
2019-03-13T10:05:24.978Z,100.00
2019-03-13T10:08:22.284Z,100.00
2019-03-13T10:11:09.851Z,100.00
2019-03-13T10:13:56.624Z,100.00
2019-03-13T10:16:43.508Z,100.00
2019-03-13T10:19:30.306Z,100.00
2019-03-13T10:22:36.815Z,100.00
2019-03-13T10:25:14.934Z,100.00
2019-03-13T10:27:50.115Z,100.00
2019-03-13T10:30:43.019Z,100.00
2019-03-13T10:33:31.082Z,100.00
2019-03-13T10:36:17.413Z,100.00
2019-03-13T10:39:05.436Z,100.00
2019-03-13T10:41:59.442Z,100.00
2019-03-13T10:44:34.349Z,100.00
2019-03-13T10:47:09.715Z,100.00
2019-03-13T10:49:46.773Z,100.00
2019-03-13T10:52:32.862Z,100.00
2019-03-13T10:55:39.129Z,100.00
2019-03-13T10:58:15.155Z,100.00
2019-03-13T11:01:11.977Z,100.00
2019-03-13T11:03:58.649Z,100.00
2019-03-13T11:07:02.047Z,100.00
2019-03-13T11:09:39.594Z,100.00
2019-03-13T11:12:19.517Z,100.00
2019-03-13T11:15:22.839Z,100.00
2019-03-13T11:18:13.677Z,100.00
2019-03-13T11:21:04.607Z,100.00
2019-03-13T11:23:48.958Z,100.00
2019-03-13T11:26:29.645Z,100.00
2019-03-13T11:29:20.638Z,100.00
2019-03-13T11:32:14.649Z,100.00
2019-03-13T11:35:08.736Z,100.00
2019-03-13T11:37:53.189Z,100.00
2019-03-13T11:40:28.392Z,100.00
2019-03-13T11:43:16.327Z,100.00
2019-03-13T11:46:13.708Z,100.00
2019-03-13T11:49:01.655Z,100.00
2019-03-13T11:51:49.616Z,100.00
2019-03-13T11:54:36.193Z,100.00
2019-03-13T11:57:27.383Z,100.00
2019-03-13T12:00:03.611Z,100.00
2019-03-13T12:02:45.670Z,100.00
2019-03-13T12:05:22.923Z,100.00
2019-03-13T12:08:14.043Z,100.00
2019-03-13T12:11:00.837Z,100.00
2019-03-13T12:13:40.168Z,100.00
2019-03-13T12:16:20.491Z,100.00
2019-03-13T12:19:07.513Z,100.00
2019-03-13T12:21:52.074Z,100.00
2019-03-13T12:24:55.432Z,100.00
2019-03-13T12:27:50.647Z,100.00
2019-03-13T12:30:37.485Z,100.00
2019-03-13T12:33:17.121Z,100.00
2019-03-13T12:36:00.749Z,100.00
2019-03-13T12:38:48.781Z,100.00
2019-03-13T12:41:35.606Z,100.00
2019-03-13T12:44:23.819Z,100.00
2019-03-13T12:47:07.492Z,100.00
2019-03-13T12:49:55.528Z,100.00
2019-03-13T12:52:43.805Z,100.00
2019-03-13T12:55:25.870Z,100.00
2019-03-13T12:58:01.436Z,100.00
2019-03-13T13:00:49.546Z,100.00
2019-03-13T13:03:35.780Z,100.00
2019-03-13T13:06:16.725Z,100.00
2019-03-13T13:08:55.262Z,100.00
2019-03-13T13:11:41.833Z,100.00
2019-03-13T13:14:33.521Z,100.00
2019-03-13T13:17:34.628Z,100.00
2019-03-13T13:20:04.211Z,100.00
2019-03-13T13:22:33.376Z,100.00
2019-03-13T13:25:02.440Z,100.00
2019-03-13T13:27:31.462Z,100.00
2019-03-13T13:30:00.570Z,100.00
2019-03-13T13:32:29.611Z,100.00
2019-03-13T13:34:58.689Z,100.00
2019-03-13T13:37:27.754Z,100.00
2019-03-13T13:39:56.845Z,100.00
2019-03-13T13:42:25.949Z,100.00
2019-03-13T13:44:54.937Z,100.00
2019-03-13T13:47:23.936Z,100.00
2019-03-13T13:49:59.663Z,100.00
2019-03-13T13:52:23.703Z,100.00
2019-03-13T13:54:55.471Z,100.00
2019-03-13T13:57:24.616Z,100.00
2019-03-13T13:59:53.692Z,100.00
2019-03-13T14:02:22.774Z,100.00
2019-03-13T14:04:51.793Z,100.00
2019-03-13T14:07:20.946Z,100.00
2019-03-13T14:09:49.981Z,100.00
2019-03-13T14:12:20.206Z,100.00
2019-03-13T14:14:50.280Z,100.00
2019-03-13T14:17:19.363Z,100.00
2019-03-13T14:19:48.370Z,100.00
2019-03-13T14:22:17.466Z,100.00
2019-03-13T14:24:46.481Z,100.00
2019-03-13T14:27:15.448Z,100.00
2019-03-13T14:29:47.019Z,100.00
2019-03-13T14:32:15.194Z,100.00
2019-03-13T14:34:44.225Z,100.00
2019-03-13T14:37:13.322Z,100.00
2019-03-13T14:39:42.404Z,100.00
2019-03-13T14:42:11.455Z,100.00
2019-03-13T14:44:40.460Z,100.00
2019-03-13T14:47:09.620Z,100.00
2019-03-13T14:49:39.761Z,100.00
2019-03-13T14:52:08.766Z,100.00
2019-03-13T14:54:37.867Z,100.00
2019-03-13T14:57:06.949Z,99.58
2019-03-13T14:59:35.991Z,100.00
2019-03-13T15:02:05.093Z,100.00
2019-03-13T15:04:34.147Z,100.00
2019-03-13T15:07:03.164Z,100.00
2019-03-13T15:09:32.288Z,98.31
2019-03-13T15:12:01.330Z,99.78
2019-03-13T15:14:30.370Z,100.00
2019-03-13T15:16:59.419Z,100.00
2019-03-13T15:19:28.483Z,99.92
2019-03-13T15:21:57.559Z,99.92
2019-03-13T15:24:26.548Z,97.70
2019-03-13T15:26:55.572Z,97.70
2019-03-13T15:29:24.931Z,99.78
2019-03-13T15:31:53.910Z,97.24
2019-03-13T15:34:23.052Z,100.00
2019-03-13T15:36:52.053Z,100.00
2019-03-13T15:39:21.096Z,98.87
2019-03-13T15:41:50.099Z,97.75
2019-03-13T15:44:21.325Z,98.10
2019-03-13T15:46:50.350Z,98.87
2019-03-13T15:49:19.390Z,98.87
2019-03-13T15:51:48.400Z,98.07
2019-03-13T15:54:17.473Z,96.33
2019-03-13T15:56:46.475Z,96.33
2019-03-13T15:59:15.491Z,93.31
2019-03-13T16:01:47.491Z,92.67
2019-03-13T16:04:16.540Z,94.16
2019-03-13T16:06:45.565Z,94.63
2019-03-13T16:09:14.556Z,95.87
2019-03-13T16:11:43.672Z,92.76
2019-03-13T16:14:12.756Z,95.83
2019-03-13T16:16:41.968Z,94.27
2019-03-13T16:19:12.181Z,95.74
2019-03-13T16:21:42.067Z,94.90
2019-03-13T16:24:11.136Z,93.06
2019-03-13T16:26:40.192Z,93.06
2019-03-13T16:29:09.178Z,90.41
2019-03-13T16:31:38.521Z,91.46
2019-03-13T16:34:07.605Z,91.46
2019-03-13T16:36:36.696Z,91.83
2019-03-13T16:39:07.780Z,93.62
2019-03-13T16:41:36.765Z,93.03
2019-03-13T16:44:05.951Z,93.03
2019-03-13T16:46:34.970Z,92.80
2019-03-13T16:49:04.077Z,88.27
2019-03-13T16:51:33.086Z,91.27
2019-03-13T16:54:02.178Z,91.27
2019-03-13T16:56:31.406Z,91.96
2019-03-13T16:59:00.514Z,90.12
2019-03-13T17:01:29.712Z,88.70
2019-03-13T17:03:58.831Z,89.63
2019-03-13T17:06:27.968Z,92.38
2019-03-13T17:08:56.977Z,91.77
2019-03-13T17:11:27.272Z,91.77
2019-03-13T17:13:56.944Z,88.80
2019-03-13T17:16:26.146Z,89.26
2019-03-13T17:18:55.244Z,89.26
2019-03-13T17:21:24.441Z,92.30
2019-03-13T17:23:53.561Z,90.46
2019-03-13T17:26:22.623Z,93.79
2019-03-13T17:28:51.630Z,91.79
2019-03-13T17:31:20.753Z,91.29
2019-03-13T17:33:49.744Z,87.32
2019-03-13T17:36:18.780Z,87.32
2019-03-13T17:38:47.739Z,88.21
2019-03-13T17:41:16.911Z,89.06
2019-03-13T17:43:46.041Z,89.06
2019-03-13T17:46:15.185Z,89.47
2019-03-13T17:48:44.222Z,88.59
2019-03-13T17:51:13.315Z,87.77
2019-03-13T17:53:42.347Z,90.56
2019-03-13T17:56:13.779Z,91.53
2019-03-13T17:58:42.981Z,90.02
2019-03-13T18:01:12.050Z,92.43
2019-03-13T18:03:41.107Z,91.64
2019-03-13T18:06:10.309Z,91.64
2019-03-13T18:08:39.330Z,91.48
2019-03-13T18:11:08.496Z,91.31
2019-03-13T18:13:37.610Z,91.58
2019-03-13T18:16:06.765Z,91.04
2019-03-13T18:18:35.875Z,91.04
2019-03-13T18:21:05.279Z,93.02
2019-03-13T18:23:34.437Z,91.82
2019-03-13T18:26:03.601Z,91.82
2019-03-13T18:28:32.774Z,92.27
2019-03-13T18:31:02.246Z,92.27
2019-03-13T18:33:31.488Z,92.06
2019-03-13T18:36:00.678Z,93.54
2019-03-13T18:38:29.753Z,93.09
2019-03-13T18:40:58.770Z,94.85
2019-03-13T18:43:27.769Z,93.16
2019-03-13T18:45:56.932Z,93.48
2019-03-13T18:48:27.486Z,93.86
2019-03-13T18:50:56.630Z,94.84
2019-03-13T18:53:25.632Z,96.24
2019-03-13T18:55:54.833Z,96.24
2019-03-13T18:58:23.940Z,95.46
2019-03-13T19:00:53.014Z,94.81
2019-03-13T19:03:22.223Z,92.68
2019-03-13T19:05:51.206Z,92.34
2019-03-13T19:08:20.207Z,92.48
2019-03-13T19:10:49.277Z,91.86
2019-03-13T19:13:18.396Z,91.97
2019-03-13T19:15:47.516Z,91.48
2019-03-13T19:18:16.608Z,90.85
2019-03-13T19:20:45.669Z,90.65
2019-03-13T19:23:14.718Z,91.75
2019-03-13T19:25:43.823Z,91.75
2019-03-13T19:28:12.844Z,91.39
2019-03-13T19:30:41.913Z,93.28
2019-03-13T19:33:11.027Z,93.22
2019-03-13T19:35:40.022Z,93.23
2019-03-13T19:38:09.174Z,93.23
2019-03-13T19:40:38.231Z,93.05
2019-03-13T19:43:07.398Z,95.12
2019-03-13T19:45:38.848Z,95.02
2019-03-13T19:48:07.995Z,94.90
2019-03-13T19:50:37.239Z,94.84
2019-03-13T19:53:06.890Z,97.71
2019-03-13T19:55:35.947Z,97.71
2019-03-13T19:58:05.415Z,97.50
2019-03-13T20:00:36.560Z,96.92
2019-03-13T20:03:06.212Z,96.92
2019-03-13T20:05:44.658Z,97.21
2019-03-13T20:08:06.070Z,97.21
2019-03-13T20:10:36.729Z,96.38
2019-03-13T20:13:06.147Z,96.76
2019-03-13T20:15:35.506Z,96.76
2019-03-13T20:18:05.845Z,97.96
2019-03-13T20:20:35.900Z,97.96
2019-03-13T20:23:05.105Z,97.93
2019-03-13T20:25:34.281Z,98.91
2019-03-13T20:28:03.434Z,99.57
2019-03-13T20:30:32.599Z,98.77
2019-03-13T20:33:01.660Z,99.81
2019-03-13T20:35:30.802Z,98.74
2019-03-13T20:37:59.934Z,99.54
2019-03-13T20:40:29.190Z,99.25
2019-03-13T20:42:58.442Z,99.25
2019-03-13T20:45:27.722Z,98.48
2019-03-13T20:47:57.089Z,99.63
2019-03-13T20:50:36.665Z,99.63
2019-03-13T20:52:57.263Z,97.97
2019-03-13T20:55:26.406Z,98.95
2019-03-13T20:57:55.455Z,97.05
2019-03-13T21:00:25.713Z,98.35
2019-03-13T21:02:54.984Z,99.74
2019-03-13T21:05:24.340Z,99.08
2019-03-13T21:07:53.613Z,98.30
2019-03-13T21:10:22.979Z,98.30
2019-03-13T21:12:52.222Z,99.19
2019-03-13T21:15:21.413Z,100.00
2019-03-13T21:17:50.542Z,100.00
2019-03-13T21:20:19.702Z,100.00
2019-03-13T21:22:48.763Z,100.00
2019-03-13T21:25:17.943Z,99.87
2019-03-13T21:27:48.091Z,99.87
2019-03-13T21:30:19.739Z,100.00
2019-03-13T21:32:48.858Z,100.00
2019-03-13T21:35:18.008Z,99.80
2019-03-13T21:37:47.161Z,99.80
2019-03-13T21:40:16.767Z,100.00
2019-03-13T21:42:45.842Z,100.00
2019-03-13T21:45:22.202Z,100.00
2019-03-13T21:47:46.204Z,99.94
2019-03-13T21:50:15.487Z,100.00
2019-03-13T21:52:44.694Z,100.00
2019-03-13T21:55:14.071Z,100.00
2019-03-13T21:57:43.201Z,100.00
2019-03-13T22:00:18.563Z,100.00
2019-03-13T22:02:47.586Z,100.00
2019-03-13T22:05:25.542Z,100.00
2019-03-13T22:07:47.576Z,100.00
2019-03-13T22:10:18.621Z,100.00
2019-03-13T22:12:48.967Z,100.00
2019-03-13T22:15:18.377Z,100.00
2019-03-13T22:17:47.543Z,100.00
2019-03-13T22:20:17.030Z,100.00
2019-03-13T22:22:46.577Z,100.00
2019-03-13T22:25:15.743Z,100.00
2019-03-13T22:27:44.863Z,100.00
2019-03-13T22:30:16.624Z,100.00
2019-03-13T22:32:45.792Z,100.00
2019-03-13T22:35:21.018Z,100.00
2019-03-13T22:37:50.263Z,100.00
2019-03-13T22:40:19.582Z,100.00
2019-03-13T22:42:48.863Z,100.00
2019-03-13T22:45:35.452Z,100.00
2019-03-13T22:48:04.523Z,100.00
2019-03-13T22:50:33.664Z,100.00
2019-03-13T22:53:02.953Z,100.00
2019-03-13T22:55:32.040Z,100.00
2019-03-13T22:58:01.654Z,100.00
2019-03-13T23:01:16.801Z,100.00
2019-03-13T23:03:46.195Z,100.00
2019-03-13T23:06:18.097Z,100.00
2019-03-13T23:08:47.138Z,100.00
2019-03-13T23:11:16.317Z,98.26
2019-03-13T23:13:45.348Z,98.06
2019-03-13T23:17:11.028Z,98.06
2019-03-13T23:19:12.807Z,98.24
2019-03-13T23:21:43.189Z,97.06
2019-03-13T23:24:15.422Z,97.06
2019-03-13T23:26:44.414Z,96.22
2019-03-13T23:29:13.490Z,96.22
2019-03-13T23:31:42.536Z,96.39
2019-03-13T23:34:11.576Z,96.39
2019-03-13T23:36:40.547Z,94.36
2019-03-13T23:39:09.771Z,95.87
2019-03-13T23:41:46.126Z,95.46
2019-03-13T23:44:18.204Z,93.75
2019-03-13T23:46:49.383Z,95.84
2019-03-13T23:49:18.211Z,94.13
2019-03-13T23:51:47.234Z,94.13
2019-03-13T23:54:16.385Z,94.04
2019-03-13T23:57:06.579Z,94.52
2019-03-13T23:59:35.558Z,94.70
